createdAt,value
2023-03-21T00:01:57.026Z,9.20
2023-03-21T00:04:33.209Z,9.20
2023-03-21T00:09:36.761Z,9.20
2023-03-21T00:24:39.283Z,9.20
2023-03-21T00:40:26.550Z,9.30
2023-03-21T00:55:27.761Z,9.30
2023-03-21T01:00:32.947Z,9.30
2023-03-21T01:03:17.458Z,9.30
2023-03-21T01:08:51.338Z,9.20
2023-03-21T01:11:25.301Z,9.30
2023-03-21T01:14:04.144Z,9.30
2023-03-21T01:19:09.312Z,9.30
2023-03-21T01:26:42.592Z,9.20
2023-03-21T01:29:11.353Z,9.20
2023-03-21T01:41:44.685Z,9.20
2023-03-21T01:44:21.982Z,9.20
2023-03-21T01:47:09.317Z,9.20
2023-03-21T01:49:51.434Z,9.20
2023-03-21T01:52:40.554Z,9.20
2023-03-21T01:55:15.854Z,9.20
2023-03-21T01:58:06.441Z,9.20
2023-03-21T02:06:36.646Z,9.20
2023-03-21T02:09:23.638Z,9.20
2023-03-21T02:14:28.933Z,9.20
2023-03-21T02:17:27.613Z,9.20
2023-03-21T02:20:32.225Z,9.20
2023-03-21T02:24:06.253Z,9.20
2023-03-21T02:27:04.047Z,9.20
2023-03-21T02:30:29.377Z,9.20
2023-03-21T02:33:42.331Z,9.20
2023-03-21T02:36:31.915Z,9.20
2023-03-21T02:39:13.017Z,9.20
2023-03-21T02:41:51.835Z,9.20
2023-03-21T02:44:40.445Z,9.20
2023-03-21T02:47:14.578Z,9.30
2023-03-21T02:49:48.976Z,9.30
2023-03-21T02:52:37.451Z,9.30
2023-03-21T02:55:15.399Z,9.30
2023-03-21T02:58:12.512Z,9.20
2023-03-21T03:00:48.529Z,9.30
2023-03-21T03:06:15.396Z,9.20
2023-03-21T03:09:04.495Z,9.20
2023-03-21T03:11:39.128Z,9.20
2023-03-21T03:14:53.059Z,9.20
2023-03-21T03:17:48.036Z,9.20
2023-03-21T03:20:35.935Z,9.10
2023-03-21T03:23:19.559Z,9.10
2023-03-21T03:25:54.847Z,9.10
2023-03-21T03:28:31.768Z,9.10
2023-03-21T03:31:09.072Z,9.00
2023-03-21T03:33:53.549Z,9.00
2023-03-21T03:36:32.250Z,9.00
2023-03-21T03:39:10.314Z,9.00
2023-03-21T03:44:41.054Z,9.00
2023-03-21T03:47:26.163Z,9.00
2023-03-21T03:50:09.812Z,9.00
2023-03-21T03:52:55.345Z,9.00
2023-03-21T03:55:28.152Z,8.90
2023-03-21T04:00:35.939Z,8.90
2023-03-21T04:03:07.299Z,8.80
2023-03-21T04:10:41.793Z,8.60
2023-03-21T04:13:10.840Z,8.50
2023-03-21T04:15:48.399Z,8.50
2023-03-21T04:25:56.394Z,8.40
2023-03-21T04:31:31.039Z,8.30
2023-03-21T04:34:09.751Z,8.30
2023-03-21T04:41:47.610Z,8.40
2023-03-21T04:44:17.643Z,8.40
2023-03-21T04:46:47.507Z,8.40
2023-03-21T04:54:19.155Z,8.50
2023-03-21T04:59:17.567Z,8.50
2023-03-21T05:04:16.152Z,8.50
2023-03-21T05:09:15.247Z,8.50
2023-03-21T05:14:18.269Z,8.40
2023-03-21T05:16:53.294Z,8.40
2023-03-21T05:19:24.319Z,8.40
2023-03-21T05:21:53.407Z,8.30
2023-03-21T05:32:09.926Z,8.20
2023-03-21T05:42:26.437Z,8.10
2023-03-21T05:47:31.371Z,8.10
2023-03-21T05:55:00.785Z,8.30
2023-03-21T06:00:07.211Z,9.70
2023-03-21T06:02:45.219Z,8.40
2023-03-21T06:18:21.883Z,8.60
2023-03-21T06:23:27.115Z,8.80
2023-03-21T06:33:29.943Z,9.10
2023-03-21T06:36:00.327Z,9.10
2023-03-21T06:50:57.268Z,9.50
2023-03-21T06:58:58.210Z,9.70
2023-03-21T07:06:52.361Z,9.90
2023-03-21T07:19:27.606Z,10.20
2023-03-21T07:21:57.214Z,10.20
2023-03-21T07:26:54.569Z,10.40
2023-03-21T07:34:23.678Z,10.60
2023-03-21T07:39:23.557Z,10.80
2023-03-21T07:44:33.550Z,10.90
2023-03-21T07:52:04.875Z,11.10
2023-03-21T07:54:34.865Z,11.10
2023-03-21T08:02:01.025Z,11.60
2023-03-21T08:11:57.967Z,12.60
2023-03-21T08:29:21.467Z,14.00
2023-03-21T08:46:48.609Z,13.50
2023-03-21T08:54:21.696Z,13.50
2023-03-21T08:59:19.039Z,13.60
2023-03-21T09:01:48.755Z,13.60
2023-03-21T09:09:17.976Z,13.50
2023-03-21T09:19:14.068Z,13.30
2023-03-21T09:36:42.051Z,13.50
2023-03-21T09:41:56.555Z,13.70
2023-03-21T09:44:39.905Z,13.70
2023-03-21T09:47:20.694Z,13.80
2023-03-21T09:50:07.562Z,13.80
2023-03-21T09:52:49.620Z,13.80
2023-03-21T09:55:22.402Z,13.90
2023-03-21T09:57:57.602Z,13.90
2023-03-21T10:00:31.779Z,13.90
2023-03-21T10:03:06.839Z,13.90
2023-03-21T10:05:39.216Z,14.00
2023-03-21T10:08:14.596Z,14.00
2023-03-21T10:10:49.542Z,14.10
2023-03-21T10:13:22.508Z,14.10
2023-03-21T10:18:24.853Z,14.10
2023-03-21T10:20:54.615Z,14.10
2023-03-21T10:23:30.068Z,14.10
2023-03-21T10:26:02.089Z,14.10
2023-03-21T10:28:51.993Z,14.00
2023-03-21T10:31:26.167Z,13.80
2023-03-21T10:33:58.720Z,13.70
2023-03-21T10:36:30.398Z,13.40
2023-03-21T10:39:05.745Z,13.20
2023-03-21T10:44:11.534Z,13.00
2023-03-21T10:49:09.625Z,13.00
2023-03-21T10:51:40.516Z,12.90
2023-03-21T10:54:15.615Z,12.90
2023-03-21T10:56:53.260Z,12.90
2023-03-21T10:59:24.190Z,12.90
2023-03-21T11:01:56.415Z,12.80
2023-03-21T11:04:30.395Z,12.70
2023-03-21T11:07:02.025Z,12.70
2023-03-21T11:09:48.047Z,12.60
2023-03-21T11:12:18.621Z,12.60
2023-03-21T11:14:48.766Z,12.50
2023-03-21T11:17:28.620Z,12.40
2023-03-21T11:20:00.669Z,12.30
2023-03-21T11:22:32.131Z,12.30
2023-03-21T11:25:03.364Z,12.30
2023-03-21T11:27:33.094Z,12.20
2023-03-21T11:30:06.871Z,12.30
2023-03-21T11:32:38.208Z,12.30
2023-03-21T11:35:15.119Z,12.40
2023-03-21T11:37:47.031Z,12.50
2023-03-21T11:40:24.605Z,12.60
2023-03-21T11:42:55.638Z,12.70
2023-03-21T11:45:26.627Z,12.70
2023-03-21T11:47:57.755Z,12.80
2023-03-21T11:50:32.595Z,12.80
2023-03-21T11:53:18.864Z,12.90
2023-03-21T11:56:05.527Z,12.90
2023-03-21T11:58:57.103Z,12.90
2023-03-21T12:01:38.142Z,13.00
2023-03-21T12:04:22.906Z,13.10
2023-03-21T12:06:55.359Z,13.10
2023-03-21T12:09:35.950Z,13.20
2023-03-21T12:12:29.981Z,13.40
2023-03-21T12:15:17.349Z,13.50
2023-03-21T12:17:57.308Z,13.70
2023-03-21T12:20:39.580Z,13.80
2023-03-21T12:23:49.923Z,13.90
2023-03-21T12:26:24.917Z,14.00
2023-03-21T12:29:14.554Z,14.10
2023-03-21T12:32:03.085Z,14.10
2023-03-21T12:35:03.611Z,14.20
2023-03-21T12:37:41.862Z,14.10
2023-03-21T12:40:23.046Z,14.10
2023-03-21T12:43:29.489Z,14.00
2023-03-21T12:46:03.488Z,14.00
2023-03-21T12:48:43.735Z,13.90
2023-03-21T12:51:17.075Z,14.00
2023-03-21T12:54:00.279Z,13.90
2023-03-21T12:56:33.746Z,13.90
2023-03-21T12:59:14.780Z,13.80
2023-03-21T13:01:47.367Z,13.80
2023-03-21T13:04:37.914Z,13.80
2023-03-21T13:07:12.216Z,13.80
2023-03-21T13:09:42.783Z,13.70
2023-03-21T13:12:31.977Z,13.70
2023-03-21T13:15:30.598Z,13.60
2023-03-21T13:18:14.123Z,13.50
2023-03-21T13:20:48.001Z,13.10
2023-03-21T13:25:49.590Z,12.50
2023-03-21T13:28:22.911Z,12.20
2023-03-21T13:30:51.849Z,12.00
2023-03-21T13:33:29.357Z,11.90
2023-03-21T13:36:05.551Z,11.80
2023-03-21T13:38:39.928Z,11.70
2023-03-21T13:41:12.758Z,11.70
2023-03-21T13:43:45.426Z,11.70
2023-03-21T13:46:16.018Z,11.70
2023-03-21T13:49:01.005Z,11.70
2023-03-21T13:51:47.649Z,11.70
2023-03-21T13:54:24.274Z,11.70
2023-03-21T13:57:01.143Z,11.70
2023-03-21T13:59:42.912Z,11.70
2023-03-21T14:02:30.127Z,11.70
2023-03-21T14:05:06.437Z,11.70
2023-03-21T14:07:37.413Z,11.70
2023-03-21T14:10:18.601Z,11.70
2023-03-21T14:12:48.494Z,11.60
2023-03-21T14:15:22.826Z,11.60
2023-03-21T14:17:54.168Z,11.60
2023-03-21T14:20:25.681Z,11.50
2023-03-21T14:25:37.292Z,11.30
2023-03-21T14:28:18.889Z,11.30
2023-03-21T14:30:52.330Z,11.30
2023-03-21T14:33:28.298Z,11.30
2023-03-21T14:36:01.871Z,11.20
2023-03-21T14:38:37.601Z,11.30
2023-03-21T14:41:07.796Z,14.50
2023-03-21T14:48:35.923Z,11.50
2023-03-21T14:51:09.315Z,11.50
2023-03-21T14:53:40.601Z,11.50
2023-03-21T14:58:46.158Z,11.60
2023-03-21T15:01:21.977Z,11.70
2023-03-21T15:03:52.508Z,11.80
2023-03-21T15:06:22.310Z,11.90
2023-03-21T15:08:58.602Z,12.00
2023-03-21T15:11:35.882Z,12.00
2023-03-21T15:14:07.983Z,12.10
2023-03-21T15:16:37.317Z,12.10
2023-03-21T15:21:42.780Z,12.10
2023-03-21T15:24:17.088Z,12.10
2023-03-21T15:26:47.757Z,12.10
2023-03-21T15:29:18.060Z,12.10
2023-03-21T15:31:49.338Z,12.00
2023-03-21T15:34:23.218Z,12.00
2023-03-21T15:36:58.820Z,12.00
2023-03-21T15:39:30.444Z,12.00
2023-03-21T15:42:02.546Z,12.00
2023-03-21T15:44:32.052Z,11.90
2023-03-21T15:49:32.336Z,12.00
2023-03-21T15:52:08.220Z,12.00
2023-03-21T15:54:44.395Z,12.00
2023-03-21T15:57:23.989Z,12.00
2023-03-21T15:59:56.932Z,12.00
2023-03-21T16:02:30.729Z,12.00
2023-03-21T16:05:01.620Z,12.00
2023-03-21T16:07:34.898Z,12.00
2023-03-21T16:10:05.905Z,12.00
2023-03-21T16:12:35.088Z,12.00
2023-03-21T16:15:03.445Z,12.00
2023-03-21T16:17:37.567Z,12.10
2023-03-21T16:20:16.668Z,12.10
2023-03-21T16:22:46.334Z,12.10
2023-03-21T16:30:14.938Z,12.10
2023-03-21T16:32:43.207Z,12.00
2023-03-21T16:35:12.181Z,12.00
2023-03-21T16:37:40.819Z,12.00
2023-03-21T16:40:23.256Z,12.00
2023-03-21T16:50:27.985Z,11.90
2023-03-21T16:52:57.735Z,11.90
2023-03-21T16:55:28.382Z,11.80
2023-03-21T17:00:30.867Z,11.80
2023-03-21T17:03:03.088Z,11.80
2023-03-21T17:05:31.935Z,11.80
2023-03-21T17:08:02.290Z,11.80
2023-03-21T17:10:34.242Z,11.70
2023-03-21T17:20:32.402Z,11.60
2023-03-21T17:25:31.797Z,11.60
2023-03-21T17:30:31.541Z,11.50
2023-03-21T17:33:00.333Z,11.50
2023-03-21T17:35:29.749Z,11.50
2023-03-21T17:37:59.192Z,11.50
2023-03-21T17:40:30.198Z,11.50
2023-03-21T17:43:01.320Z,11.40
2023-03-21T17:45:29.835Z,11.40
2023-03-21T17:47:59.112Z,11.40
2023-03-21T17:50:34.240Z,11.40
2023-03-21T17:58:01.292Z,11.20
2023-03-21T18:00:32.059Z,11.30
2023-03-21T18:03:00.749Z,11.20
2023-03-21T18:13:12.682Z,11.10
2023-03-21T18:25:51.870Z,10.90
2023-03-21T18:28:21.848Z,10.90
2023-03-21T18:33:37.263Z,10.70
2023-03-21T18:59:09.678Z,10.40
2023-03-21T19:14:30.688Z,10.30
2023-03-21T19:24:47.176Z,10.20
2023-03-21T19:29:59.743Z,10.20
2023-03-21T19:32:31.443Z,10.10
2023-03-21T19:37:29.255Z,10.20
2023-03-21T19:45:00.139Z,10.20
2023-03-21T20:00:15.522Z,10.10
2023-03-21T20:05:14.365Z,10.10
2023-03-21T20:15:17.549Z,10.10
2023-03-21T20:17:48.265Z,10.10
2023-03-21T20:25:41.272Z,10.20
2023-03-21T20:30:54.031Z,10.20
2023-03-21T20:33:23.819Z,10.20
2023-03-21T20:49:07.602Z,10.10
2023-03-21T21:04:48.234Z,9.80
2023-03-21T21:07:21.055Z,9.80
2023-03-21T21:09:50.261Z,9.60
2023-03-21T21:12:19.745Z,9.70
2023-03-21T21:20:16.862Z,9.50
2023-03-21T21:22:58.582Z,9.40
2023-03-21T21:27:57.436Z,9.30
2023-03-21T21:32:54.377Z,9.20
2023-03-21T21:35:24.000Z,9.20
2023-03-21T21:52:54.657Z,9.40
2023-03-21T21:55:23.303Z,9.50
2023-03-21T22:07:53.114Z,9.50
2023-03-21T22:10:23.655Z,9.40
2023-03-21T22:20:21.840Z,9.40
2023-03-21T22:22:51.810Z,9.40
2023-03-21T22:25:20.249Z,9.40
2023-03-21T22:30:18.708Z,9.30
2023-03-21T22:33:02.529Z,9.30
2023-03-21T22:38:04.648Z,9.10
2023-03-21T22:45:30.194Z,8.90
2023-03-21T22:50:28.961Z,8.80
2023-03-21T22:55:27.143Z,8.70
2023-03-21T22:57:55.693Z,8.60
2023-03-21T23:10:19.627Z,8.50
2023-03-21T23:12:49.536Z,8.50
2023-03-21T23:30:12.236Z,8.60
2023-03-21T23:35:10.824Z,8.70
2023-03-21T23:40:12.494Z,8.70
2023-03-21T23:45:12.060Z,8.80
2023-03-21T23:47:40.432Z,8.80
2023-03-21T23:50:10.518Z,8.90
2023-03-21T23:52:41.476Z,8.90
2023-03-21T23:55:10.810Z,9.00
